| time (UTC) | temp F | wind direction | speed MPH | gust MPH | rain 1hr in | rain 24hr in | rain mn in | humidity % | barometer mb |
| 20260510021505 | 44 | 169 | 0.0 | 2.0 | 0.00 | 0.44 | 0.44 | 96 | 1011.1 |
| 20260510020002 | 44 | 169 | 0.0 | 0.0 | 0.00 | 0.44 | 0.44 | 96 | 1011.1 |
| 20260510014503 | 45 | 169 | 0.0 | 1.0 | 0.00 | 0.44 | 0.44 | 95 | 1011.1 |
| 20260510011504 | 46 | 169 | 1.0 | 1.0 | 0.00 | 0.44 | 0.44 | 95 | 1010.7 |
| 20260510010004 | 47 | 169 | 0.0 | 1.0 | 0.00 | 0.44 | 0.44 | 94 | 1010.6 |
| 20260510004504 | 48 | 169 | 0.0 | 1.0 | 0.00 | 0.44 | 0.44 | 94 | 1010.3 |
| 20260510003004 | 49 | 169 | 0.0 | 3.0 | 0.00 | 0.44 | 0.44 | 94 | 1010.2 |
| 20260510001503 | 50 | 169 | 1.0 | 3.0 | 0.00 | 0.44 | 0.44 | 93 | 1010.3 |
| 20260510000003 | 51 | 187 | 1.0 | 3.0 | 0.00 | 0.45 | 0.44 | 93 | 1010.0 |
| 20260509234503 | 52 | 194 | 2.0 | 3.0 | 0.00 | 0.45 | 0.44 | 92 | 1009.8 |
| 20260509230003 | 53 | 158 | 2.0 | 9.0 | 0.00 | 0.45 | 0.44 | 90 | 1009.3 |
| 20260509224507 | 53 | 225 | 3.0 | 10.0 | 0.00 | 0.45 | 0.44 | 91 | 1009.6 |
| 20260509223003 | 53 | 213 | 5.0 | 7.0 | 0.00 | 0.45 | 0.44 | 91 | 1009.6 |
| 20260509221507 | 53 | 224 | 1.0 | 5.0 | 0.00 | 0.45 | 0.44 | 94 | 1009.6 |
| 20260509214505 | 52 | 193 | 2.0 | 10.0 | 0.00 | 0.45 | 0.44 | 94 | 1010.0 |
| 20260509213005 | 52 | 267 | 3.0 | 12.0 | 0.00 | 0.45 | 0.44 | 96 | 1010.0 |
| 20260509211511 | 52 | 223 | 2.0 | 10.0 | 0.00 | 0.45 | 0.44 | 96 | 1010.1 |
| 20260509210004 | 52 | 235 | 4.0 | 12.0 | 0.00 | 0.45 | 0.44 | 96 | 1010.2 |
| 20260509204503 | 52 | 198 | 4.0 | 10.0 | 0.01 | 0.45 | 0.44 | 97 | 1010.2 |
| 20260509203004 | 51 | 213 | 5.0 | 7.0 | 0.02 | 0.45 | 0.44 | 98 | 1010.2 |
| 20260509201506 | 51 | 249 | 2.0 | 5.0 | 0.05 | 0.45 | 0.44 | 98 | 1010.2 |
| 20260509200008 | 50 | 241 | 2.0 | 5.0 | 0.06 | 0.45 | 0.44 | 98 | 1010.3 |
| 20260509194504 | 49 | 195 | 1.0 | 6.0 | 0.07 | 0.44 | 0.43 | 98 | 1010.7 |
| 20260509193003 | 49 | 225 | 3.0 | 12.0 | 0.09 | 0.43 | 0.42 | 97 | 1011.0 |
| 20260509191505 | 49 | 222 | 3.0 | 12.0 | 0.08 | 0.40 | 0.39 | 98 | 1011.2 |
| 20260509190005 | 49 | 201 | 2.0 | 6.0 | 0.09 | 0.39 | 0.38 | 98 | 1011.3 |
| 20260509184503 | 49 | 187 | 2.0 | 14.0 | 0.10 | 0.37 | 0.36 | 97 | 1011.2 |
| 20260509181515 | 49 | 159 | 4.0 | 9.0 | 0.10 | 0.32 | 0.31 | 98 | 1011.5 |
| 20260509180021 | 49 | 237 | 3.0 | 13.0 | 0.10 | 0.30 | 0.29 | 98 | 1011.4 |
| 20260509171503 | 49 | 182 | 5.0 | 12.0 | 0.04 | 0.22 | 0.21 | 97 | 1011.4 |
| 20260509170008 | 49 | 164 | 2.0 | 9.0 | 0.03 | 0.21 | 0.19 | 97 | 1011.4 |
| 20260509164505 | 50 | 239 | 3.0 | 12.0 | 0.03 | 0.20 | 0.18 | 97 | 1011.5 |
| 20260509163004 | 50 | 211 | 4.0 | 12.0 | 0.02 | 0.19 | 0.17 | 98 | 1011.5 |
| 20260509161514 | 49 | 172 | 4.0 | 12.0 | 0.03 | 0.19 | 0.17 | 97 | 1011.6 |
| 20260509154503 | 50 | 151 | 2.0 | 9.0 | 0.02 | 0.17 | 0.15 | 98 | 1011.7 |
| 20260509153005 | 49 | 173 | 2.0 | 5.0 | 0.04 | 0.17 | 0.15 | 98 | 1011.7 |
| 20260509151504 | 49 | 162 | 3.0 | 7.0 | 0.04 | 0.16 | 0.14 | 98 | 1011.7 |
| 20260509150004 | 49 | 154 | 2.0 | 5.0 | 0.05 | 0.16 | 0.14 | 98 | 1011.5 |
| 20260509143003 | 48 | 178 | 1.0 | 6.0 | 0.02 | 0.13 | 0.11 | 98 | 1012.4 |
| 20260509141504 | 48 | 163 | 1.0 | 3.0 | 0.02 | 0.12 | 0.10 | 98 | 1012.1 |
| 20260509134503 | 48 | 160 | 1.0 | 2.0 | 0.01 | 0.11 | 0.09 | 99 | 1011.9 |
| 20260509131503 | 47 | 160 | 1.0 | 6.0 | 0.01 | 0.10 | 0.08 | 99 | 1011.6 |
| 20260509130004 | 47 | 167 | 0.0 | 2.0 | 0.01 | 0.10 | 0.08 | 98 | 1011.9 |
| 20260509124503 | 47 | 169 | 2.0 | 6.0 | 0.02 | 0.10 | 0.08 | 98 | 1011.8 |
| 20260509123003 | 46 | 138 | 2.0 | 3.0 | 0.01 | 0.09 | 0.07 | 99 | 1011.7 |
| 20260509121503 | 46 | 159 | 1.0 | 3.0 | 0.01 | 0.09 | 0.07 | 99 | 1012.1 |
| 20260509120005 | 46 | 153 | 1.0 | 2.0 | 0.02 | 0.09 | 0.07 | 99 | 1011.9 |
| 20260509114503 | 46 | 153 | 0.0 | 1.0 | 0.01 | 0.08 | 0.06 | 98 | 1012.0 |
| 20260509113004 | 45 | 153 | 0.0 | 1.0 | 0.02 | 0.08 | 0.06 | 98 | 1012.0 |
| 20260509111504 | 45 | 153 | 1.0 | 2.0 | 0.02 | 0.08 | 0.06 | 98 | 1012.1 |
| 20260509110003 | 44 | 153 | 0.0 | 1.0 | 0.01 | 0.07 | 0.05 | 98 | 1012.0 |
| 20260509104504 | 44 | 153 | 0.0 | 2.0 | 0.01 | 0.07 | 0.05 | 98 | 1011.9 |
| 20260509103004 | 43 | 153 | 1.0 | 2.0 | 0.00 | 0.06 | 0.04 | 98 | 1011.9 |
| 20260509100004 | 43 | 153 | 0.0 | 0.0 | 0.00 | 0.06 | 0.04 | 98 | 1011.9 |
| 20260509094503 | 43 | 153 | 0.0 | 1.0 | 0.00 | 0.06 | 0.04 | 98 | 1011.9 |
| 20260509093004 | 43 | 153 | 0.0 | 1.0 | 0.00 | 0.06 | 0.04 | 98 | 1012.0 |
| 20260509091503 | 43 | 153 | 0.0 | 1.0 | 0.00 | 0.06 | 0.04 | 98 | 1012.3 |
| 20260509084504 | 44 | 153 | 0.0 | 1.0 | 0.00 | 0.06 | 0.04 | 98 | 1012.6 |
| 20260509083004 | 44 | 153 | 1.0 | 1.0 | 0.00 | 0.06 | 0.04 | 98 | 1012.8 |
| 20260509081504 | 44 | 153 | 0.0 | 1.0 | 0.00 | 0.06 | 0.04 | 98 | 1012.9 |
| 20260509080004 | 44 | 153 | 0.0 | 1.0 | 0.00 | 0.06 | 0.04 | 98 | 1012.7 |
| 20260509074504 | 44 | 153 | 0.0 | 1.0 | 0.00 | 0.06 | 0.04 | 98 | 1013.0 |
| 20260509071504 | 44 | 153 | 0.0 | 3.0 | 0.01 | 0.06 | 0.04 | 98 | 1012.8 |
| 20260509070004 | 44 | 158 | 2.0 | 3.0 | 0.02 | 0.06 | 0.04 | 98 | 1012.7 |
| 20260509064504 | 43 | 207 | 0.0 | 3.0 | 0.03 | 0.06 | 0.04 | 97 | 1012.7 |
| 20260509063004 | 43 | 207 | 1.0 | 2.0 | 0.02 | 0.05 | 0.03 | 97 | 1013.0 |
| 20260509061504 | 43 | 207 | 1.0 | 2.0 | 0.02 | 0.05 | 0.03 | 97 | 1013.6 |
| 20260509060004 | 43 | 207 | 0.0 | 2.0 | 0.01 | 0.04 | 0.02 | 97 | 1013.9 |
| 20260509053004 | 43 | 208 | 1.0 | 7.0 | 0.01 | 0.04 | 0.01 | 97 | 1013.7 |
| 20260509051504 | 43 | 228 | 1.0 | 3.0 | 0.01 | 0.06 | 0.01 | 97 | 1013.4 |
| 20260509050003 | 42 | 230 | 0.0 | 1.0 | 0.01 | 0.10 | 0.01 | 97 | 1013.3 |
| 20260509044504 | 42 | 230 | 0.0 | 1.0 | 0.00 | 0.10 | 0.00 | 97 | 1013.1 |
| 20260509043004 | 42 | 230 | 0.0 | 0.0 | 0.00 | 0.10 | 0.00 | 96 | 1013.3 |
| 20260509040006 | 42 | 230 | 0.0 | 1.0 | 0.00 | 0.12 | 0.00 | 96 | 1013.5 |
| 20260509034505 | 41 | 230 | 0.0 | 2.0 | 0.00 | 0.12 | 0.12 | 95 | 1013.7 |
| 20260509033004 | 41 | 230 | 0.0 | 0.0 | 0.00 | 0.12 | 0.12 | 95 | 1013.6 |
| 20260509024505 | 42 | 230 | 1.0 | 1.0 | 0.00 | 0.12 | 0.12 | 93 | 1013.5 |
| 20260509023005 | 43 | 230 | 0.0 | 0.0 | 0.00 | 0.12 | 0.12 | 93 | 1013.7 |